Time;durP1;ratioP1;P1;durP2;ratioP2;P2;SDS_P1;SDS_P2;PMS_P1;PMS_P2;Temp;Humidity;BMP_temperature;BMP_pressure;BME280_temperature;BME280_humidity;BME280_pressure;Samples;Min_cycle;Max_cycle;Signal;HPM_P1;HPM_P2
2023/08/03 00:00:52;;;;;;;;;;;;;;;;;;6239278;28;20585;-64
2023/08/03 00:03:53;;;;;;;1.08;0.75;;;;;;;;;;6235402;28;20495;-63
2023/08/03 00:06:53;;;;;;;;;;;;;;;;;;6239426;28;20039;-64
2023/08/03 00:09:53;;;;;;;1.23;0.70;;;;;;;;;;6244358;28;19988;-64
2023/08/03 00:12:53;;;;;;;;;;;;;;;;;;6241428;28;20428;-60
2023/08/03 00:15:53;;;;;;;0.80;0.70;;;;;;;;;;6238168;28;19943;-60
2023/08/03 00:18:53;;;;;;;;;;;;;;;;;;6243671;28;20037;-51
2023/08/03 00:21:54;;;;;;;1.25;0.70;;;;;;;;;;6239964;28;19967;-58
2023/08/03 00:24:54;;;;;;;;;;;;;;;;;;6244275;28;20754;-57
2023/08/03 00:27:54;;;;;;;0.40;0.40;;;;;;;;;;6243137;28;20380;-56
2023/08/03 00:30:54;;;;;;;;;;;;;;;;;;6242888;28;20442;-59
2023/08/03 00:33:54;;;;;;;2.22;0.80;;;;;;;;;;6229214;28;19909;-56
2023/08/03 00:36:54;;;;;;;;;;;;;;;;;;6220989;28;20111;-55
2023/08/03 00:39:55;;;;;;;1.23;0.80;;;;;;;;;;6231520;28;20003;-51
2023/08/03 00:42:55;;;;;;;;;;;;;;;;;;6243012;28;20029;-59
2023/08/03 00:45:55;;;;;;;0.68;0.68;;;;;;;;;;6243120;28;20395;-56
2023/08/03 00:48:55;;;;;;;;;;;;;;;;;;6238305;28;20121;-57
2023/08/03 00:51:56;;;;;;;0.73;0.70;;;;;;;;;;6243268;28;19916;-55
2023/08/03 00:54:56;;;;;;;;;;;;;;;;;;6245591;28;20413;-56
2023/08/03 00:57:57;;;;;;;0.88;0.80;;;;;;;;;;6243180;28;19916;-57
2023/08/03 01:00:57;;;;;;;2.57;1.00;;;;;;;;;;6245417;28;20485;-57
2023/08/03 01:03:57;;;;;;;2.58;0.90;;;;;;;;;;6234285;28;20273;-57
2023/08/03 01:06:58;;;;;;;1.45;1.00;;;;;;;;;;6234910;28;20040;-59
2023/08/03 01:09:58;;;;;;;;;;;;;;;;;;6239651;28;20026;-58
2023/08/03 01:12:58;;;;;;;1.38;0.90;;;;;;;;;;6236654;28;19961;-68
2023/08/03 01:16:00;;;;;;;1.20;0.95;;;;;;;;;;6241025;28;20032;-58
2023/08/03 01:19:00;;;;;;;1.65;0.70;;;;;;;;;;6229706;28;20501;-50
2023/08/03 01:22:02;;;;;;;1.00;0.90;;;;;;;;;;6239918;28;20033;-50
2023/08/03 01:25:02;;;;;;;0.80;0.75;;;;;;;;;;6236574;28;20257;-53
2023/08/03 01:28:05;;;;;;;1.00;0.70;;;;;;;;;;6229792;28;20040;-57
2023/08/03 01:31:06;;;;;;;1.33;0.95;;;;;;;;;;6231518;28;20183;-54
2023/08/03 01:34:06;;;;;;;1.27;0.73;;;;;;;;;;6237533;28;20094;-61
2023/08/03 01:37:06;;;;;;;;;;;;;;;;;;6241076;28;20071;-65
2023/08/03 01:40:07;;;;;;;1.30;0.93;;;;;;;;;;6237047;28;20007;-55
2023/08/03 01:43:07;;;;;;;1.60;1.05;;;;;;;;;;6245863;28;20324;-55
2023/08/03 01:46:07;;;;;;;1.73;1.23;;;;;;;;;;6239827;28;20058;-56
2023/08/03 01:49:07;;;;;;;;;;;;;;;;;;6242756;28;20549;-61
2023/08/03 01:52:07;;;;;;;2.30;1.20;;;;;;;;;;6243681;28;19908;-55
2023/08/03 01:55:08;;;;;;;2.60;1.10;;;;;;;;;;6240141;28;20039;-64
2023/08/03 01:58:08;;;;;;;;;;;;;;;;;;6245052;28;20507;-59
2023/08/03 02:01:08;;;;;;;1.10;0.88;;;;;;;;;;6241610;28;19940;-55
2023/08/03 02:04:08;;;;;;;1.30;0.97;;;;;;;;;;6239527;28;20032;-56
2023/08/03 02:07:10;;;;;;;1.03;0.90;;;;;;;;;;6244032;28;20032;-62
2023/08/03 02:10:10;;;;;;;1.17;1.02;;;;;;;;;;6247764;28;20056;-55
2023/08/03 02:13:11;;;;;;;1.55;1.10;;;;;;;;;;6242513;28;20537;-57
2023/08/03 02:16:11;;;;;;;1.43;1.20;;;;;;;;;;6245925;28;20029;-57
2023/08/03 02:19:11;;;;;;;;;;;;;;;;;;6233137;28;21001;-64
2023/08/03 02:22:11;;;;;;;0.93;0.88;;;;;;;;;;6245338;28;19909;-57
2023/08/03 02:25:12;;;;;;;1.07;0.97;;;;;;;;;;6230611;28;20026;-56
2023/08/03 02:28:12;;;;;;;;;;;;;;;;;;6238938;28;20048;-55
2023/08/03 02:31:12;;;;;;;1.25;1.00;;;;;;;;;;6245214;28;19925;-62
2023/08/03 02:34:12;;;;;;;;;;;;;;;;;;6238670;28;20037;-54
2023/08/03 02:37:12;;;;;;;1.13;0.90;;;;;;;;;;6236673;28;19909;-58
2023/08/03 02:40:12;;;;;;;;;;;;;;;;;;6239807;28;20474;-59
2023/08/03 02:43:13;;;;;;;2.72;1.08;;;;;;;;;;6244652;28;19924;-57
2023/08/03 02:46:13;;;;;;;1.10;1.00;;;;;;;;;;6238773;28;20033;-63
2023/08/03 02:49:13;;;;;;;;;;;;;;;;;;6240711;28;20060;-68
2023/08/03 02:52:13;;;;;;;0.80;0.80;;;;;;;;;;6225912;28;19916;-62
2023/08/03 02:55:13;;;;;;;;;;;;;;;;;;6227363;28;20382;-59
2023/08/03 02:58:13;;;;;;;2.28;0.70;;;;;;;;;;6243348;28;19920;-60
2023/08/03 03:01:14;;;;;;;1.03;0.80;;;;;;;;;;6239627;28;20619;-60
2023/08/03 03:04:14;;;;;;;;;;;;;;;;;;6235351;28;20036;-61
2023/08/03 03:07:14;;;;;;;2.42;0.68;;;;;;;;;;6240341;28;19913;-66
2023/08/03 03:10:14;;;;;;;0.70;0.70;;;;;;;;;;6248174;28;20052;-57
2023/08/03 03:16:34;;;;;;;0.90;0.70;;;;;;;;;;6245824;28;20464;-59
2023/08/03 03:19:34;;;;;;;0.83;0.80;;;;;;;;;;6236170;28;20036;-61
2023/08/03 03:22:35;;;;;;;;;;;;;;;;;;6242959;28;20031;-56
2023/08/03 03:58:10;;;;;;;1.15;1.00;;;;;;;;;;7218258;23;20342;-62
2023/08/03 04:01:11;;;;;;;;;;;;;;;;;;6150734;28;20344;-61
2023/08/03 04:04:11;;;;;;;1.55;0.88;;;;;;;;;;6164586;28;19917;-63
2023/08/03 04:07:11;;;;;;;;;;;;;;;;;;6160761;28;20390;-61
2023/08/03 04:10:11;;;;;;;1.40;1.05;;;;;;;;;;6159592;28;19926;-61
2023/08/03 04:13:11;;;;;;;1.43;1.07;;;;;;;;;;6160759;28;20110;-61
2023/08/03 04:16:11;;;;;;;;;;;;;;;;;;6159284;28;20301;-61
2023/08/03 04:19:12;;;;;;;2.05;0.90;;;;;;;;;;6163536;28;19914;-60
2023/08/03 04:22:12;;;;;;;;;;;;;;;;;;6170510;28;20441;-62
2023/08/03 04:25:13;;;;;;;2.28;1.23;;;;;;;;;;6168171;28;19945;-60
2023/08/03 04:28:13;;;;;;;1.08;0.70;;;;;;;;;;6169444;28;20038;-63
2023/08/03 04:31:13;;;;;;;;;;;;;;;;;;6171044;28;20062;-66
2023/08/03 04:34:14;;;;;;;1.00;0.80;;;;;;;;;;6166127;28;19918;-61
2023/08/03 04:37:14;;;;;;;0.90;0.70;;;;;;;;;;6165128;28;20023;-64
2023/08/03 04:40:14;;;;;;;;;;;;;;;;;;6162958;28;20277;-64
2023/08/03 04:43:14;;;;;;;1.05;0.75;;;;;;;;;;6157781;28;20045;-60
2023/08/03 04:46:14;;;;;;;2.33;0.83;;;;;;;;;;6164170;28;20475;-61
2023/08/03 04:49:14;;;;;;;;;;;;;;;;;;6149264;28;20777;-60
2023/08/03 04:52:15;;;;;;;1.08;0.73;;;;;;;;;;6169220;28;19910;-63
2023/08/03 04:55:15;;;;;;;;;;;;;;;;;;6170037;28;20026;-60
2023/08/03 04:58:15;;;;;;;1.67;0.80;;;;;;;;;;6168510;28;20031;-63
2023/08/03 05:01:15;;;;;;;1.20;0.70;;;;;;;;;;6168722;28;20419;-56
2023/08/03 05:04:15;;;;;;;1.20;0.60;;;;;;;;;;6166667;28;20038;-63
2023/08/03 05:07:15;;;;;;;1.35;0.68;;;;;;;;;;6169224;28;20173;-60
2023/08/03 05:10:16;;;;;;;0.80;0.63;;;;;;;;;;6166668;28;20038;-66
2023/08/03 05:13:17;;;;;;;0.50;0.47;;;;;;;;;;6172828;28;20749;-62
2023/08/03 05:16:24;;;;;;;1.88;0.90;;;;;;;;;;6170619;28;20310;-61
2023/08/03 05:19:24;;;;;;;1.35;0.82;;;;;;;;;;6173123;28;20410;-59
2023/08/03 05:22:24;;;;;;;2.13;1.00;;;;;;;;;;6171427;28;20094;-65
2023/08/03 05:25:24;;;;;;;0.97;0.70;;;;;;;;;;6155202;28;20030;-61
2023/08/03 05:28:25;;;;;;;1.20;0.77;;;;;;;;;;6172226;28;20124;-63
2023/08/03 05:31:26;;;;;;;1.65;0.93;;;;;;;;;;6157344;28;20286;-64
2023/08/03 05:34:26;;;;;;;2.70;0.70;;;;;;;;;;6170517;28;20085;-63
2023/08/03 05:37:26;;;;;;;1.20;0.70;;;;;;;;;;6168731;28;20038;-62
2023/08/03 05:40:27;;;;;;;1.88;0.70;;;;;;;;;;6171120;28;20046;-63
2023/08/03 05:43:27;;;;;;;1.67;0.80;;;;;;;;;;6173731;28;20379;-64
2023/08/03 05:46:30;;;;;;;1.00;0.60;;;;;;;;;;6170594;28;20345;-64
2023/08/03 05:49:30;;;;;;;0.75;0.57;;;;;;;;;;6172041;28;20043;-63
2023/08/03 05:52:31;;;;;;;1.03;0.60;;;;;;;;;;6170724;28;20019;-64
2023/08/03 05:55:31;;;;;;;1.02;0.73;;;;;;;;;;6169907;28;20622;-64
2023/08/03 05:58:33;;;;;;;1.27;0.77;;;;;;;;;;6166420;28;20055;-63
2023/08/03 06:01:34;;;;;;;1.10;0.68;;;;;;;;;;6165567;28;20030;-62
2023/08/03 06:04:34;;;;;;;0.88;0.68;;;;;;;;;;6168681;28;20503;-63
2023/08/03 06:07:35;;;;;;;0.80;0.60;;;;;;;;;;6171570;28;20034;-66
2023/08/03 06:10:35;;;;;;;1.87;0.67;;;;;;;;;;6169282;28;20525;-64
2023/08/03 06:13:35;;;;;;;1.00;0.70;;;;;;;;;;6169962;28;20030;-66
2023/08/03 06:16:35;;;;;;;1.27;0.75;;;;;;;;;;6171709;28;20031;-64
2023/08/03 06:19:36;;;;;;;1.73;0.90;;;;;;;;;;6165863;28;20529;-64
2023/08/03 06:22:36;;;;;;;1.23;0.77;;;;;;;;;;6168672;28;20285;-65
2023/08/03 06:25:36;;;;;;;1.67;0.80;;;;;;;;;;6169208;28;20037;-62
2023/08/03 06:28:37;;;;;;;0.83;0.70;;;;;;;;;;6133275;28;20034;-62
2023/08/03 06:31:39;;;;;;;3.65;0.80;;;;;;;;;;6130686;28;20273;-68
2023/08/03 06:34:39;;;;;;;1.50;0.95;;;;;;;;;;6139605;28;20105;-66
2023/08/03 06:37:39;;;;;;;0.85;0.60;;;;;;;;;;6137135;28;20356;-56
2023/08/03 06:40:40;;;;;;;2.67;0.83;;;;;;;;;;6141301;28;20490;-52
2023/08/03 06:43:41;;;;;;;1.10;0.70;;;;;;;;;;6140275;28;20337;-64
2023/08/03 06:46:41;;;;;;;1.20;0.80;;;;;;;;;;6640484;23;20054;-65
2023/08/03 06:49:41;;;;;;;1.40;0.90;;;;;;;;;;6120337;28;20137;-65
2023/08/03 06:52:41;;;;;;;2.50;0.80;;;;;;;;;;6160136;28;20688;-68
2023/08/03 06:55:46;;;;;;;1.00;0.87;;;;;;;;;;6165528;28;20038;-62
2023/08/03 06:58:47;;;;;;;1.02;0.80;;;;;;;;;;6148417;28;20049;-63
2023/08/03 07:01:48;;;;;;;1.07;0.73;;;;;;;;;;6161316;28;20030;-69
2023/08/03 07:04:48;;;;;;;1.33;0.80;;;;;;;;;;6148679;28;20034;-59
2023/08/03 07:07:49;;;;;;;2.43;0.80;;;;;;;;;;6164542;28;20390;-60
2023/08/03 07:10:49;;;;;;;1.67;0.80;;;;;;;;;;6165447;28;21659;-60
2023/08/03 07:13:49;;;;;;;0.93;0.77;;;;;;;;;;6172306;28;20038;-60
2023/08/03 07:16:50;;;;;;;1.57;0.80;;;;;;;;;;6169946;28;20827;-62
2023/08/03 07:19:51;;;;;;;1.40;0.80;;;;;;;;;;6162713;28;20301;-62
2023/08/03 07:22:52;;;;;;;1.30;0.80;;;;;;;;;;6169015;28;20022;-61
2023/08/03 07:25:52;;;;;;;0.90;0.70;;;;;;;;;;6173089;28;20798;-61
2023/08/03 07:28:52;;;;;;;2.47;0.80;;;;;;;;;;6169547;28;20033;-62
2023/08/03 07:31:53;;;;;;;2.00;1.00;;;;;;;;;;6171000;28;20029;-61
2023/08/03 07:34:53;;;;;;;2.37;0.87;;;;;;;;;;6163880;28;20038;-62
2023/08/03 07:37:53;;;;;;;2.10;0.70;;;;;;;;;;6163053;28;20085;-61
2023/08/03 07:40:54;;;;;;;1.20;0.80;;;;;;;;;;6171591;28;20034;-62
2023/08/03 07:43:54;;;;;;;0.90;0.60;;;;;;;;;;6165807;28;20015;-62
2023/08/03 07:46:54;;;;;;;1.20;0.77;;;;;;;;;;6166457;28;20377;-62
2023/08/03 07:49:57;;;;;;;1.57;1.03;;;;;;;;;;6166920;28;20296;-62
2023/08/03 07:52:57;;;;;;;1.10;0.73;;;;;;;;;;6170493;28;20286;-65
2023/08/03 07:55:58;;;;;;;1.50;0.80;;;;;;;;;;6171018;28;20030;-66
2023/08/03 07:59:00;;;;;;;1.50;0.73;;;;;;;;;;6166841;28;20045;-64
2023/08/03 08:02:01;;;;;;;1.50;0.60;;;;;;;;;;6157510;28;20045;-68
2023/08/03 08:05:01;;;;;;;1.70;0.80;;;;;;;;;;6153002;28;20224;-67
2023/08/03 08:08:01;;;;;;;1.80;0.80;;;;;;;;;;6152463;28;20033;-67
2023/08/03 08:11:01;;;;;;;1.83;0.87;;;;;;;;;;6166291;28;20089;-68
2023/08/03 08:14:01;;;;;;;2.17;0.90;;;;;;;;;;6168081;28;20278;-72
2023/08/03 08:17:02;;;;;;;1.42;0.80;;;;;;;;;;6156212;28;20049;-68
2023/08/03 08:20:02;;;;;;;1.27;0.77;;;;;;;;;;6154288;28;20884;-72
2023/08/03 08:23:02;;;;;;;1.25;0.60;;;;;;;;;;6158447;28;20101;-69
2023/08/03 08:26:12;;;;;;;2.28;0.70;;;;;;;;;;6159992;28;20025;-74
2023/08/03 08:29:13;;;;;;;1.73;0.80;;;;;;;;;;6158425;28;20105;-73
2023/08/03 08:32:13;;;;;;;1.45;0.70;;;;;;;;;;6170802;28;20112;-69
2023/08/03 08:35:13;;;;;;;1.57;0.83;;;;;;;;;;6169726;28;20045;-69
2023/08/03 08:56:25;;;;;;;4.55;0.75;;;;;;;;;;4756772;28;23401;-68
2023/08/03 08:59:27;;;;;;;1.08;0.57;;;;;;;;;;6168826;28;20055;-69
2023/08/03 09:06:05;;;;;;;1.83;0.80;;;;;;;;;;6170396;28;20034;-70
2023/08/03 09:09:05;;;;;;;0.53;0.50;;;;;;;;;;6170497;28;20053;-67
2023/08/03 09:12:06;;;;;;;1.60;0.90;;;;;;;;;;6175398;28;20443;-67
2023/08/03 09:15:06;;;;;;;;;;;;;;;;;;6186103;28;20860;-67
2023/08/03 09:21:58;;;;;;;1.30;0.60;;;;;;;;;;6171709;28;20026;-67
2023/08/03 09:25:01;;;;;;;1.20;0.70;;;;;;;;;;6172082;28;20049;-68
2023/08/03 09:28:01;;;;;;;1.15;0.80;;;;;;;;;;6169496;28;20022;-67
2023/08/03 09:34:40;;;;;;;0.80;0.60;;;;;;;;;;6171916;28;20113;-71
2023/08/03 09:37:40;;;;;;;2.15;0.75;;;;;;;;;;6151076;28;20030;-73
2023/08/03 09:40:43;;;;;;;1.40;0.63;;;;;;;;;;6160505;28;20042;-73
2023/08/03 09:43:47;;;;;;;0.82;0.60;;;;;;;;;;6161363;28;20035;-73
2023/08/03 09:46:49;;;;;;;1.52;0.85;;;;;;;;;;6158781;28;20034;-74
2023/08/03 09:49:49;;;;;;;1.35;0.80;;;;;;;;;;6155008;28;20125;-74
2023/08/03 09:52:52;;;;;;;1.17;0.70;;;;;;;;;;6158586;28;20037;-74
2023/08/03 09:56:00;;;;;;;1.05;0.63;;;;;;;;;;6159075;28;20034;-76
2023/08/03 09:59:03;;;;;;;1.77;0.80;;;;;;;;;;6162091;28;20074;-73
2023/08/03 10:02:08;;;;;;;1.23;0.70;;;;;;;;;;6158692;28;20034;-72
2023/08/03 10:05:09;;;;;;;1.02;0.45;;;;;;;;;;6161243;28;20411;-72
2023/08/03 10:08:09;;;;;;;2.65;0.80;;;;;;;;;;6157693;28;20132;-72
2023/08/03 10:11:11;;;;;;;1.00;0.63;;;;;;;;;;6161585;28;21291;-74
2023/08/03 10:14:12;;;;;;;0.65;0.60;;;;;;;;;;6144220;28;20030;-74
2023/08/03 10:17:12;;;;;;;0.93;0.45;;;;;;;;;;6161431;28;20117;-74
2023/08/03 10:20:13;;;;;;;2.28;0.98;;;;;;;;;;6141301;28;20026;-74
2023/08/03 10:23:17;;;;;;;2.15;0.90;;;;;;;;;;6156874;28;20034;-73
2023/08/03 10:26:20;;;;;;;1.70;0.70;;;;;;;;;;5476483;28;10000744;-74
2023/08/03 10:29:39;;;;;;;2.17;0.60;;;;;;;;;;6162322;28;20046;-74
2023/08/03 10:32:39;;;;;;;1.17;0.77;;;;;;;;;;6164578;28;20509;-73
2023/08/03 10:35:40;;;;;;;1.35;0.60;;;;;;;;;;6163987;28;20137;-73
2023/08/03 10:38:43;;;;;;;1.40;0.68;;;;;;;;;;6148235;28;20719;-75
2023/08/03 10:41:44;;;;;;;1.63;0.70;;;;;;;;;;6163491;28;20414;-72
2023/08/03 10:44:45;;;;;;;0.60;0.60;;;;;;;;;;6165752;28;20505;-65
2023/08/03 10:47:45;;;;;;;1.90;0.70;;;;;;;;;;6159970;28;20438;-68
2023/08/03 10:51:02;;;;;;;1.13;0.70;;;;;;;;;;6160123;28;20304;-66
2023/08/03 10:54:02;;;;;;;0.70;0.50;;;;;;;;;;6164984;28;20293;-68
2023/08/03 10:57:06;;;;;;;1.13;0.50;;;;;;;;;;6158808;28;20185;-72
2023/08/03 11:00:07;;;;;;;2.35;0.70;;;;;;;;;;6162621;28;20034;-68
2023/08/03 11:03:07;;;;;;;2.38;0.70;;;;;;;;;;6160784;28;20049;-70
2023/08/03 11:06:08;;;;;;;1.23;0.60;;;;;;;;;;6163730;28;20061;-72
2023/08/03 11:09:08;;;;;;;1.57;0.60;;;;;;;;;;6162401;28;20065;-71
2023/08/03 11:26:41;;;;;;;1.75;0.60;;;;;;;;;;6174655;28;20064;-68
2023/08/03 11:29:42;;;;;;;1.30;0.60;;;;;;;;;;6170268;28;22391;-66
2023/08/03 11:32:42;;;;;;;1.77;0.82;;;;;;;;;;6157286;28;20033;-68
2023/08/03 11:35:42;;;;;;;1.27;0.57;;;;;;;;;;6168296;28;20160;-71
2023/08/03 11:38:44;;;;;;;1.05;0.73;;;;;;;;;;6170794;28;20459;-69
2023/08/03 11:41:44;;;;;;;0.68;0.68;;;;;;;;;;6171714;28;20030;-72
2023/08/03 11:44:45;;;;;;;1.08;0.60;;;;;;;;;;6157819;28;20312;-70
2023/08/03 11:47:46;;;;;;;6.10;0.77;;;;;;;;;;6156835;28;20387;-70
2023/08/03 11:50:46;;;;;;;1.45;0.80;;;;;;;;;;6167534;28;20505;-66
2023/08/03 11:53:46;;;;;;;1.07;0.60;;;;;;;;;;6168195;28;20042;-73
2023/08/03 11:56:47;;;;;;;0.73;0.53;;;;;;;;;;6165704;28;20141;-72
2023/08/03 11:59:48;;;;;;;0.93;0.70;;;;;;;;;;6166125;28;20453;-68
2023/08/03 12:02:48;;;;;;;1.50;0.70;;;;;;;;;;6156193;28;20623;-70
2023/08/03 12:05:49;;;;;;;2.03;0.90;;;;;;;;;;6158758;28;20447;-72
2023/08/03 12:08:49;;;;;;;1.77;0.80;;;;;;;;;;6142576;28;20129;-74
2023/08/03 12:11:49;;;;;;;1.80;0.50;;;;;;;;;;6159095;28;20038;-74
2023/08/03 12:14:49;;;;;;;1.03;0.53;;;;;;;;;;5799134;28;10000373;-74
2023/08/03 12:17:50;;;;;;;1.13;0.70;;;;;;;;;;6162340;28;20318;-74
2023/08/03 12:20:50;;;;;;;1.00;0.57;;;;;;;;;;6143703;28;20741;-74
2023/08/03 12:23:51;;;;;;;1.27;0.60;;;;;;;;;;6162282;28;20038;-74
2023/08/03 12:26:51;;;;;;;1.10;0.57;;;;;;;;;;6160782;28;21322;-74
2023/08/03 12:29:51;;;;;;;1.07;0.60;;;;;;;;;;6149015;28;20038;-74
2023/08/03 12:32:51;;;;;;;3.73;0.70;;;;;;;;;;6166963;28;20110;-72
2023/08/03 12:35:52;;;;;;;0.80;0.57;;;;;;;;;;6160447;28;21519;-70
2023/08/03 12:38:52;;;;;;;1.17;0.60;;;;;;;;;;6159668;28;20269;-74
2023/08/03 12:41:52;;;;;;;1.42;0.70;;;;;;;;;;6151931;28;20281;-69
2023/08/03 12:44:53;;;;;;;0.60;0.50;;;;;;;;;;6144358;28;20506;-71
2023/08/03 12:47:54;;;;;;;0.70;0.52;;;;;;;;;;6146515;28;20039;-70
2023/08/03 12:54:32;;;;;;;0.65;0.50;;;;;;;;;;6163660;28;20121;-72
2023/08/03 13:01:10;;;;;;;1.10;0.60;;;;;;;;;;5475344;28;20337;-70
2023/08/03 13:04:11;;;;;;;2.25;0.75;;;;;;;;;;6159773;28;20116;-69
2023/08/03 13:07:11;;;;;;;1.55;0.80;;;;;;;;;;6163562;28;20061;-69
2023/08/03 13:10:14;;;;;;;1.17;0.67;;;;;;;;;;6160108;28;20069;-69
2023/08/03 13:13:17;;;;;;;1.08;0.80;;;;;;;;;;6161741;28;20696;-66
2023/08/03 13:16:19;;;;;;;1.27;0.50;;;;;;;;;;6164231;28;20100;-66
2023/08/03 13:19:19;;;;;;;1.70;0.80;;;;;;;;;;6163574;28;20139;-72
2023/08/03 13:22:19;;;;;;;1.00;0.50;;;;;;;;;;6163318;28;20671;-70
2023/08/03 13:25:19;;;;;;;1.40;0.70;;;;;;;;;;6166069;28;20685;-65
2023/08/03 13:28:20;;;;;;;1.65;0.60;;;;;;;;;;6167798;28;20288;-65
2023/08/03 13:31:20;;;;;;;1.65;0.70;;;;;;;;;;6160973;28;20038;-69
2023/08/03 13:34:20;;;;;;;1.00;0.73;;;;;;;;;;6164071;28;22107;-69
2023/08/03 13:37:21;;;;;;;1.10;0.50;;;;;;;;;;6166007;28;20485;-76
2023/08/03 13:40:21;;;;;;;1.52;0.75;;;;;;;;;;6176416;28;20062;-74
2023/08/03 13:43:21;;;;;;;0.80;0.70;;;;;;;;;;6177799;28;21195;-74
2023/08/03 13:46:22;;;;;;;1.63;0.50;;;;;;;;;;6155953;28;20809;-75
2023/08/03 13:49:22;;;;;;;1.17;0.70;;;;;;;;;;6177270;28;20773;-73
2023/08/03 13:52:22;;;;;;;2.88;0.75;;;;;;;;;;6174204;28;20089;-74
2023/08/03 13:55:23;;;;;;;1.73;0.70;;;;;;;;;;6177249;28;20030;-74
2023/08/03 13:58:23;;;;;;;0.90;0.70;;;;;;;;;;6175471;28;20556;-75
2023/08/03 14:01:23;;;;;;;1.65;0.80;;;;;;;;;;6160859;28;20141;-68
2023/08/03 14:04:26;;;;;;;1.30;0.70;;;;;;;;;;6165203;28;21639;-66
2023/08/03 14:07:26;;;;;;;1.23;0.70;;;;;;;;;;6163519;28;20033;-69
2023/08/03 14:10:26;;;;;;;1.50;0.80;;;;;;;;;;6168503;28;20374;-66
2023/08/03 14:13:26;;;;;;;1.30;0.70;;;;;;;;;;6164731;28;20033;-74
2023/08/03 14:16:27;;;;;;;1.17;0.98;;;;;;;;;;5821845;28;9999812;-76
2023/08/03 14:19:27;;;;;;;2.45;0.95;;;;;;;;;;6172006;28;20576;-70
2023/08/03 14:22:28;;;;;;;2.93;0.97;;;;;;;;;;6157988;28;20058;-68
2023/08/03 14:25:30;;;;;;;1.13;0.80;;;;;;;;;;6162679;28;20335;-69
2023/08/03 14:28:33;;;;;;;1.33;0.70;;;;;;;;;;6165768;28;20037;-73
2023/08/03 14:31:33;;;;;;;0.90;0.52;;;;;;;;;;6164808;28;20200;-67
2023/08/03 14:34:34;;;;;;;0.70;0.50;;;;;;;;;;6163150;28;20855;-65
2023/08/03 14:37:34;;;;;;;1.33;0.73;;;;;;;;;;6160938;28;20030;-65
2023/08/03 14:40:34;;;;;;;1.00;0.57;;;;;;;;;;6167373;28;20038;-65
2023/08/03 14:43:35;;;;;;;0.75;0.63;;;;;;;;;;6166230;28;20029;-62
2023/08/03 14:46:35;;;;;;;1.00;0.60;;;;;;;;;;6158011;28;20458;-62
2023/08/03 14:49:35;;;;;;;2.00;0.60;;;;;;;;;;6146756;28;20104;-67
2023/08/03 14:52:35;;;;;;;2.53;0.60;;;;;;;;;;6163521;28;20528;-65
2023/08/03 14:55:36;;;;;;;1.00;0.67;;;;;;;;;;6164444;28;20270;-61
2023/08/03 14:58:36;;;;;;;2.70;0.57;;;;;;;;;;6162462;28;20367;-67
2023/08/03 15:01:37;;;;;;;1.27;0.70;;;;;;;;;;6159626;28;20293;-62
2023/08/03 15:04:37;;;;;;;2.83;0.83;;;;;;;;;;6163656;28;20494;-64
2023/08/03 15:07:38;;;;;;;1.33;0.70;;;;;;;;;;6163727;28;20226;-65
2023/08/03 15:10:39;;;;;;;1.42;0.95;;;;;;;;;;6166058;28;20354;-63
2023/08/03 15:13:39;;;;;;;2.00;0.80;;;;;;;;;;6160927;28;20585;-67
2023/08/03 15:16:39;;;;;;;1.88;0.95;;;;;;;;;;6163805;28;20885;-65
2023/08/03 15:19:39;;;;;;;2.10;0.90;;;;;;;;;;6166885;28;20534;-64
2023/08/03 15:22:40;;;;;;;1.03;0.70;;;;;;;;;;6163510;28;20271;-66
2023/08/03 15:25:40;;;;;;;1.93;1.10;;;;;;;;;;6168110;28;20037;-71
2023/08/03 15:28:40;;;;;;;2.03;0.93;;;;;;;;;;6165183;28;20296;-66
2023/08/03 15:31:41;;;;;;;2.15;1.00;;;;;;;;;;6165327;28;20038;-64
2023/08/03 15:34:41;;;;;;;1.85;0.82;;;;;;;;;;6167685;28;20074;-64
2023/08/03 15:37:41;;;;;;;1.08;0.80;;;;;;;;;;6169775;28;20037;-64
2023/08/03 15:40:41;;;;;;;1.20;0.63;;;;;;;;;;6162917;28;20050;-66
2023/08/03 15:43:42;;;;;;;1.70;0.67;;;;;;;;;;6162682;28;20033;-67
2023/08/03 15:46:42;;;;;;;0.85;0.70;;;;;;;;;;6163993;28;20277;-65
2023/08/03 15:49:42;;;;;;;1.97;0.73;;;;;;;;;;6164980;28;20475;-67
2023/08/03 15:52:42;;;;;;;1.23;0.73;;;;;;;;;;6160982;28;20030;-66
2023/08/03 15:55:49;;;;;;;1.20;0.83;;;;;;;;;;6161994;28;20265;-67
2023/08/03 15:58:50;;;;;;;1.20;0.65;;;;;;;;;;6161687;28;21185;-64
2023/08/03 16:01:50;;;;;;;1.40;0.68;;;;;;;;;;6167472;28;20082;-66
2023/08/03 16:04:51;;;;;;;1.08;0.52;;;;;;;;;;6163011;28;20042;-66
2023/08/03 16:07:52;;;;;;;1.05;0.50;;;;;;;;;;6160991;28;20045;-66
2023/08/03 16:10:59;;;;;;;0.85;0.50;;;;;;;;;;6159892;28;20473;-64
2023/08/03 16:13:59;;;;;;;0.90;0.60;;;;;;;;;;6163423;28;20363;-63
2023/08/03 16:16:59;;;;;;;0.77;0.50;;;;;;;;;;6162449;28;20022;-68
2023/08/03 16:20:00;;;;;;;0.63;0.50;;;;;;;;;;6162657;28;20031;-74
2023/08/03 16:33:54;;;;;;;2.10;0.70;;;;;;;;;;6172635;28;20065;-66
2023/08/03 16:36:55;;;;;;;2.47;0.70;;;;;;;;;;6160291;28;20030;-67
2023/08/03 16:39:57;;;;;;;0.97;0.80;;;;;;;;;;6160276;28;20492;-65
2023/08/03 16:42:57;;;;;;;0.93;0.70;;;;;;;;;;6171475;28;20282;-64
2023/08/03 16:45:58;;;;;;;1.27;0.57;;;;;;;;;;6165134;28;20829;-66
2023/08/03 16:48:58;;;;;;;1.63;0.77;;;;;;;;;;6158582;28;20752;-68
2023/08/03 16:51:58;;;;;;;1.30;0.67;;;;;;;;;;6167945;28;20085;-66
2023/08/03 16:54:58;;;;;;;0.90;0.60;;;;;;;;;;6164580;28;20297;-63
2023/08/03 16:57:59;;;;;;;0.97;0.60;;;;;;;;;;6164383;28;20924;-64
2023/08/03 17:00:59;;;;;;;1.25;0.68;;;;;;;;;;6167330;28;20432;-68
2023/08/03 17:03:59;;;;;;;1.00;0.80;;;;;;;;;;6165269;28;21454;-66
2023/08/03 17:07:00;;;;;;;0.95;0.60;;;;;;;;;;6162551;28;20030;-63
2023/08/03 17:10:00;;;;;;;2.45;0.70;;;;;;;;;;6171970;28;20505;-65
2023/08/03 17:13:00;;;;;;;1.63;0.80;;;;;;;;;;6166025;28;20029;-64
2023/08/03 17:16:03;;;;;;;1.00;0.63;;;;;;;;;;6165680;28;20461;-66
2023/08/03 17:19:04;;;;;;;0.95;0.50;;;;;;;;;;6162197;28;20041;-64
2023/08/03 17:22:04;;;;;;;1.70;0.60;;;;;;;;;;6163610;28;20026;-67
2023/08/03 17:35:58;;;;;;;0.98;0.65;;;;;;;;;;6148579;28;20743;-72
2023/08/03 17:38:59;;;;;;;1.65;0.77;;;;;;;;;;6166557;28;20042;-66
2023/08/03 17:41:59;;;;;;;0.80;0.65;;;;;;;;;;6171278;28;20029;-66
2023/08/03 17:44:59;;;;;;;1.30;0.90;;;;;;;;;;6163760;28;20498;-65
2023/08/03 17:47:59;;;;;;;1.93;0.93;;;;;;;;;;6168341;28;20113;-66
2023/08/03 17:51:08;;;;;;;1.70;1.17;;;;;;;;;;6164286;28;20060;-65
2023/08/03 17:54:08;;;;;;;1.73;1.15;;;;;;;;;;6167195;28;20129;-66
2023/08/03 17:57:08;;;;;;;2.58;1.15;;;;;;;;;;6169681;28;20088;-65
2023/08/03 18:00:10;;;;;;;1.30;0.93;;;;;;;;;;6174942;28;20030;-65
2023/08/03 18:03:10;;;;;;;1.15;1.00;;;;;;;;;;6165748;28;20440;-66
2023/08/03 18:06:11;;;;;;;1.93;0.93;;;;;;;;;;6165260;28;20028;-65
2023/08/03 18:09:11;;;;;;;2.35;1.20;;;;;;;;;;6166131;28;20660;-65
2023/08/03 18:12:12;;;;;;;1.20;0.90;;;;;;;;;;6153502;28;20113;-67
2023/08/03 18:15:13;;;;;;;1.50;0.88;;;;;;;;;;6162963;28;20034;-68
2023/08/03 18:18:13;;;;;;;3.58;0.98;;;;;;;;;;6165228;28;20040;-66
2023/08/03 18:21:19;;;;;;;1.50;0.97;;;;;;;;;;6150002;28;20113;-66
2023/08/03 18:24:19;;;;;;;1.00;0.77;;;;;;;;;;6162856;28;20030;-66
2023/08/03 18:27:20;;;;;;;;;;;;;;;;;;6167775;28;20042;-67
2023/08/03 18:30:20;;;;;;;2.00;0.88;;;;;;;;;;6168148;28;19972;-69
2023/08/03 18:33:20;;;;;;;;;;;;;;;;;;6165620;28;20388;-65
2023/08/03 18:36:20;;;;;;;0.77;0.68;;;;;;;;;;6160146;28;19917;-72
2023/08/03 18:39:21;;;;;;;1.13;0.80;;;;;;;;;;6164813;28;20117;-67
2023/08/03 18:42:22;;;;;;;;;;;;;;;;;;6155285;28;20030;-65
2023/08/03 18:45:22;;;;;;;0.88;0.68;;;;;;;;;;5827914;28;9999620;-60
2023/08/03 18:48:23;;;;;;;1.73;1.00;;;;;;;;;;6172354;28;20034;-60
2023/08/03 18:51:23;;;;;;;1.17;0.93;;;;;;;;;;6172537;28;20049;-66
2023/08/03 18:54:23;;;;;;;;;;;;;;;;;;6172637;28;20034;-60
2023/08/03 18:57:23;;;;;;;1.50;0.90;;;;;;;;;;6173505;28;19914;-61
2023/08/03 19:00:24;;;;;;;;;;;;;;;;;;6171071;28;20370;-60
2023/08/03 19:03:24;;;;;;;1.45;0.95;;;;;;;;;;6172455;28;20358;-63
2023/08/03 19:06:28;;;;;;;1.63;1.08;;;;;;;;;;6171667;28;20125;-61
2023/08/03 19:09:28;;;;;;;2.05;1.13;;;;;;;;;;6166058;28;20073;-67
2023/08/03 19:12:28;;;;;;;;;;;;;;;;;;6185628;28;20125;-71
2023/08/03 19:15:31;;;;;;;2.47;1.00;;;;;;;;;;6157044;28;20020;-71
2023/08/03 19:18:31;;;;;;;1.65;1.10;;;;;;;;;;6180146;28;20036;-72
2023/08/03 19:21:32;;;;;;;;;;;;;;;;;;6169738;28;20418;-71
2023/08/03 19:24:32;;;;;;;1.10;1.00;;;;;;;;;;6181945;28;19952;-73
2023/08/03 19:27:33;;;;;;;;;;;;;;;;;;6186970;28;20026;-72
2023/08/03 19:30:35;;;;;;;1.55;0.80;;;;;;;;;;6181043;28;20298;-71
2023/08/03 19:33:35;;;;;;;2.05;1.10;;;;;;;;;;6184737;28;20549;-72
2023/08/03 19:36:36;;;;;;;1.88;1.25;;;;;;;;;;6173342;28;20034;-72
2023/08/03 19:53:48;;;;;;;0.93;0.70;;;;;;;;;;6194004;28;20418;-68
2023/08/03 19:56:48;;;;;;;;;;;;;;;;;;6194394;28;20045;-66
2023/08/03 20:07:11;;;;;;;0.85;0.60;;;;;;;;;;6103754;28;20137;-66
2023/08/03 20:10:12;;;;;;;;;;;;;;;;;;6195041;28;20048;-61
2023/08/03 20:13:12;;;;;;;1.03;0.93;;;;;;;;;;6194215;28;19906;-65
2023/08/03 20:16:12;;;;;;;;;;;;;;;;;;6176356;28;20033;-72
2023/08/03 20:19:12;;;;;;;2.20;1.15;;;;;;;;;;6193077;28;19918;-70
2023/08/03 20:22:13;;;;;;;1.00;0.80;;;;;;;;;;6172287;28;20034;-70
2023/08/03 20:25:13;;;;;;;;;;;;;;;;;;6194388;28;20478;-77
2023/08/03 20:28:13;;;;;;;0.70;0.70;;;;;;;;;;6194120;28;19916;-75